Bloomington, IL (61701)

4:41 PM CST on November 24, 2014 (GMT -0600)
Across from IWU | Change Station
CLOSE
Current Station
Personal Weather Station
Location: Bloomington, IL
Elevation: 810 ft
Nearby Weather Stations
Active Advisory: Special Statement Active Notice: Local Storm Report

Elev 810 ft 40.49 °N, 88.99 °W | Updated 1 minute ago

Overcast
Overcast
31.1 °F
Feels Like 26 °F
N
5.0
Wind Variable Wind from South
Gusts 28.0 mph

Today
High -- | Low -- °F
--% Chance of Precip.
Yesterday
High -- | Low -- °F
Precip. -- in
6:52 AM 4:32 PM
Waxing Crescent, 7% visible
Pressure 29.73 in
Visibility 10.0 miles
Clouds Mostly Cloudy 1800 ft
Overcast 2200 ft
Windchill 26 °F
Dew Point 28 °F
Humidity 87%
Rainfall 0.35 in
Snow Depth Not available.
UV 0 out of 12
Pollen .10 out of 12
Air Quality Not available.
Flu Activity Not available.
METAR KBMI 242156Z 25021G29KT 10SM BKN018 OVC022 M01/M03 A2970 RMK AO2 T10051027 PK WND 24029/2118 SLP067

More Conditions Fewer Conditions

Pressure 29.73 in
Visibility 10.0 miles
Clouds Mostly Cloudy 1800 ft
Overcast 2200 ft
Windchill 26 °F
Dew Point 28 °F
Humidity 87%
Rainfall 0.35 in
Snow Depth Not available.
UV 0 out of 12
Pollen .10 out of 12
Air Quality Not available.
Flu Activity Not available.
METAR KBMI 242156Z 25021G29KT 10SM BKN018 OVC022 M01/M03 A2970 RMK AO2 T10051027 PK WND 24029/2118 SLP067

More Conditions Fewer Conditions

10-Day Weather Forecast

Almanac

Astronomy

Nov. 24, 2014 Rise Set
Actual Time
Civil Twilight
Nautical Twilight
Astronomical Twilight
Moon
Length of Visible Light
Length of Day
Tomorrow will be .
, % of the Moon is Illuminated

Today's Extremes

State Highs State Lows

Community

WunderPhotos

Upload Photos

1,773,427 photos uploaded!

WunderBlogs® & News

Nearby

Air Quality

  Air Quality AQ Index Pollutant
Not available.

Snow Depth

Station Depth Elevation

Earthquake Activity

City Distance Mag. Time & Date
Minimum magnitude displayed is 2.5.

Coastal Water Temperatures

Place Temperature

Nearby Weather Stations